Time;durP1;ratioP1;P1;durP2;ratioP2;P2;SDS_P1;SDS_P2;PMS_P1;PMS_P2;Temp;Humidity;BMP_temperature;BMP_pressure;BME280_temperature;BME280_humidity;BME280_pressure;Samples;Min_cycle;Max_cycle;Signal;HPM_P1;HPM_P2
2021/05/04 00:01:35;;;;;;;8.60;6.57;;;;;;;2.05;75.75;99499.88;512016;1099;115563;-65
2021/05/04 00:11:40;;;;;;;10.40;6.95;;;;;;;2.04;75.27;99500.78;513475;1104;115502;-66
2021/05/04 00:21:44;;;;;;;10.50;6.93;;;;;;;2.01;75.50;99495.70;512998;1104;116442;-65
2021/05/04 00:31:50;;;;;;;9.60;6.63;;;;;;;2.01;75.60;99494.84;513099;1100;115855;-67
2021/05/04 00:41:55;;;;;;;13.43;7.23;;;;;;;2.12;75.49;99489.34;512654;1104;114904;-65
2021/05/04 00:51:59;;;;;;;10.43;7.13;;;;;;;2.06;75.38;99488.63;512067;1104;115761;-66
2021/05/04 01:02:04;;;;;;;9.55;7.00;;;;;;;2.04;75.41;99477.47;513451;1104;114993;-66
2021/05/04 01:12:10;;;;;;;12.47;8.40;;;;;;;1.80;75.56;99471.31;513916;1104;115517;-66
2021/05/04 01:22:15;;;;;;;11.95;8.15;;;;;;;1.54;76.39;99454.78;512855;1104;116049;-66
2021/05/04 01:32:20;;;;;;;11.85;9.20;;;;;;;1.31;76.19;99443.34;512455;1100;115633;-67
2021/05/04 01:42:25;;;;;;;10.63;8.10;;;;;;;0.98;76.48;99454.59;512478;1104;116003;-66
2021/05/04 01:52:31;;;;;;;10.90;7.95;;;;;;;0.77;76.97;99442.23;512946;1104;115687;-65
2021/05/04 02:02:36;;;;;;;18.73;9.30;;;;;;;0.56;77.22;99447.05;512710;1100;115435;-65
2021/05/04 02:12:41;;;;;;;12.83;9.50;;;;;;;0.31;77.43;99431.34;511358;1100;115543;-65
2021/05/04 02:22:46;;;;;;;11.83;7.98;;;;;;;0.13;77.62;99429.16;512784;1104;114981;-64
2021/05/04 02:32:50;;;;;;;14.63;9.97;;;;;;;0.06;77.71;99413.82;512284;1104;116015;-65
2021/05/04 02:42:54;;;;;;;15.03;9.33;;;;;;;-0.04;78.33;99400.30;511483;1098;115875;-65
2021/05/04 02:53:01;;;;;;;16.63;11.97;;;;;;;-0.19;78.32;99398.91;512694;1100;115940;-65
2021/05/04 03:03:06;;;;;;;14.30;10.85;;;;;;;-0.30;78.45;99391.42;512281;1104;116144;-65
2021/05/04 03:13:11;;;;;;;14.80;10.47;;;;;;;-0.35;78.97;99376.05;512153;1099;116282;-66
2021/05/04 03:23:16;;;;;;;17.95;9.93;;;;;;;-0.26;79.12;99374.98;513063;1104;115974;-65
2021/05/04 03:33:20;;;;;;;15.70;10.80;;;;;;;0.01;79.27;99364.91;512603;1100;115649;-66
2021/05/04 03:43:26;;;;;;;15.40;10.97;;;;;;;0.52;79.41;99350.70;511763;1099;116522;-65
2021/05/04 03:53:31;;;;;;;12.40;9.20;;;;;;;1.44;78.09;99339.49;513058;1104;115398;-65
2021/05/04 04:03:36;;;;;;;15.40;9.53;;;;;;;2.32;76.74;99339.28;512105;1104;115224;-67
2021/05/04 04:13:41;;;;;;;12.33;8.87;;;;;;;3.02;75.62;99328.20;512549;1104;115920;-67
2021/05/04 04:23:45;;;;;;;11.93;8.63;;;;;;;4.03;74.10;99324.29;512759;1100;115851;-67
2021/05/04 04:33:49;;;;;;;11.43;8.30;;;;;;;4.84;72.92;99320.86;512402;1104;116197;-66
2021/05/04 04:43:55;;;;;;;11.73;7.60;;;;;;;5.82;71.22;99311.96;512738;1104;115761;-67
2021/05/04 04:53:59;;;;;;;8.13;6.23;;;;;;;7.22;69.18;99309.23;511703;1100;115599;-64
2021/05/04 05:04:05;;;;;;;8.10;6.27;;;;;;;12.62;65.75;99290.75;511524;1104;115609;-63
2021/05/04 05:14:10;;;;;;;7.20;6.25;;;;;;;17.08;58.56;99265.72;511176;1104;115961;-63
2021/05/04 05:24:15;;;;;;;7.17;4.57;;;;;;;19.61;53.38;99251.80;513689;1100;115771;-64
2021/05/04 05:34:20;;;;;;;10.63;4.80;;;;;;;21.77;48.54;99240.39;511664;1104;116736;-64
2021/05/04 05:44:25;;;;;;;5.60;4.50;;;;;;;23.93;44.79;99227.78;512304;1099;115816;-63
2021/05/04 05:54:31;;;;;;;5.20;4.70;;;;;;;26.22;40.51;99198.13;513429;1104;116182;-63
2021/05/04 06:04:35;;;;;;;6.60;4.70;;;;;;;27.21;37.29;99186.31;513445;1100;116095;-63
2021/05/04 06:14:40;;;;;;;7.27;5.37;;;;;;;26.76;34.84;99171.83;512540;1104;115453;-62
2021/05/04 06:24:45;;;;;;;5.25;4.00;;;;;;;24.32;33.05;99153.17;514751;1104;115704;-58
2021/05/04 06:34:50;;;;;;;6.57;5.27;;;;;;;22.75;32.91;99124.50;512104;1100;115763;-60
2021/05/04 06:44:54;;;;;;;4.60;4.20;;;;;;;21.45;33.48;99120.27;513095;1104;116100;-61
2021/05/04 06:54:59;;;;;;;5.85;4.20;;;;;;;21.80;33.12;99107.27;511781;1104;115586;-63
2021/05/04 07:05:07;;;;;;;5.30;3.70;;;;;;;20.04;33.28;99096.27;512992;1100;116322;-58
2021/05/04 07:15:14;;;;;;;5.60;4.40;;;;;;;18.17;34.52;99085.03;513306;1104;116279;-58
2021/05/04 07:25:18;;;;;;;7.70;5.00;;;;;;;21.97;33.18;99072.33;512111;1104;116293;-61
2021/05/04 07:35:23;;;;;;;5.07;4.40;;;;;;;24.71;30.73;99049.69;512773;1104;116491;-59
2021/05/04 07:45:27;;;;;;;10.07;4.53;;;;;;;26.95;29.59;99034.56;513135;1104;115749;-60
2021/05/04 07:55:33;;;;;;;5.60;4.00;;;;;;;29.06;27.35;99021.87;512050;1104;115343;-59
2021/05/04 08:05:38;;;;;;;6.30;4.03;;;;;;;26.62;26.11;99006.02;513228;1104;115959;-58
2021/05/04 08:15:42;;;;;;;4.70;4.20;;;;;;;22.94;28.10;98989.20;511987;1104;116926;-60
2021/05/04 08:25:47;;;;;;;10.33;5.20;;;;;;;21.16;29.17;98977.69;513758;1100;116846;-61
2021/05/04 08:35:52;;;;;;;4.93;3.90;;;;;;;20.86;29.37;98958.98;513343;1100;115868;-61
2021/05/04 08:45:59;;;;;;;5.30;4.15;;;;;;;20.17;30.40;98936.64;513104;1104;115859;-60
2021/05/04 08:56:04;;;;;;;5.30;2.93;;;;;;;20.10;30.90;98914.39;513011;1099;117777;-61
2021/05/04 09:06:14;;;;;;;5.63;3.57;;;;;;;19.49;30.72;98902.53;513277;1100;115606;-65
2021/05/04 09:16:29;;;;;;;4.70;3.25;;;;;;;19.14;31.10;98888.69;512513;1104;115926;-60
2021/05/04 09:26:35;;;;;;;3.63;2.80;;;;;;;18.25;32.16;98878.81;512806;1104;117006;-60
2021/05/04 09:36:45;;;;;;;4.43;2.47;;;;;;;18.30;32.85;98865.88;513985;1100;114984;-60
2021/05/04 09:46:51;;;;;;;3.28;2.98;;;;;;;18.11;32.60;98848.41;513310;1099;117292;-61
2021/05/04 09:56:56;;;;;;;6.23;3.30;;;;;;;17.38;32.87;98816.27;512721;1104;115931;-60
2021/05/04 10:07:01;;;;;;;7.60;3.20;;;;;;;17.49;32.91;98800.03;512114;1104;116552;-61
2021/05/04 10:17:06;;;;;;;3.17;2.20;;;;;;;17.63;33.21;98785.27;512882;1100;116072;-61
2021/05/04 10:27:11;;;;;;;3.37;2.43;;;;;;;17.96;33.27;98779.17;514318;1104;117377;-61
2021/05/04 10:37:35;;;;;;;2.80;2.60;;;;;;;17.68;32.68;98750.27;512321;1104;116191;-59
2021/05/04 10:47:49;;;;;;;4.30;3.30;;;;;;;17.09;33.49;98717.53;513416;1100;116086;-59
2021/05/04 10:58:16;;;;;;;3.17;2.53;;;;;;;16.91;33.57;98718.44;513618;1104;116900;-62
2021/05/04 11:08:20;;;;;;;7.55;3.25;;;;;;;17.51;33.32;98694.54;512743;1104;116228;-60
2021/05/04 11:18:57;;;;;;;4.80;2.57;;;;;;;17.44;33.29;98680.27;513234;1104;115160;-60
2021/05/04 11:29:08;;;;;;;3.20;2.90;;;;;;;17.56;32.92;98657.70;512765;1100;115945;-61
2021/05/04 11:39:12;;;;;;;3.30;2.57;;;;;;;16.97;33.52;98647.17;513236;1104;116005;-61
2021/05/04 11:49:26;;;;;;;3.07;2.33;;;;;;;16.72;34.14;98634.71;511727;1099;117400;-60
2021/05/04 11:59:31;;;;;;;3.30;2.45;;;;;;;16.24;34.63;98637.02;512801;1104;116607;-60
2021/05/04 12:09:36;;;;;;;3.63;2.57;;;;;;;15.86;34.96;98610.80;512993;1099;116543;-62
2021/05/04 12:19:40;;;;;;;2.60;2.40;;;;;;;15.38;35.50;98579.41;514188;1104;116431;-60
2021/05/04 12:29:51;;;;;;;3.10;2.57;;;;;;;14.92;36.10;98565.48;512486;1104;116186;-59
2021/05/04 12:40:13;;;;;;;3.45;1.90;;;;;;;14.97;36.65;98528.88;512395;1104;116732;-60
2021/05/04 12:50:32;;;;;;;2.43;1.83;;;;;;;15.13;37.08;98533.46;513117;1104;115865;-60
2021/05/04 13:00:37;;;;;;;2.63;2.33;;;;;;;15.06;37.56;98516.55;512389;1104;116102;-60
2021/05/04 13:10:55;;;;;;;3.25;2.80;;;;;;;14.99;37.71;98490.71;513112;1100;115298;-61
2021/05/04 13:21:21;;;;;;;5.33;3.03;;;;;;;14.84;38.00;98481.69;513240;1104;117264;-60
2021/05/04 13:31:26;;;;;;;3.07;2.37;;;;;;;14.94;38.49;98465.73;512492;1104;115851;-60
2021/05/04 13:51:54;;;;;;;6.27;3.37;;;;;;;15.65;38.79;98426.80;512582;1104;116121;-61
2021/05/04 14:02:03;;;;;;;3.25;1.95;;;;;;;15.82;38.41;98421.55;512488;1100;115830;-62
2021/05/04 14:32:57;;;;;;;4.37;3.67;;;;;;;15.71;37.41;98363.63;513033;1104;115978;-59
2021/05/04 14:43:29;;;;;;;4.70;2.95;;;;;;;15.52;37.51;98349.67;512609;1099;116013;-62
2021/05/04 14:54:07;;;;;;;5.30;2.80;;;;;;;15.22;37.85;98326.27;513048;1104;115618;-59
2021/05/04 15:04:15;;;;;;;4.83;2.87;;;;;;;15.32;38.18;98314.73;512371;1099;116828;-59
2021/05/04 15:14:24;;;;;;;;;;;;;;;15.67;38.06;98305.74;513083;1104;115995;-63
2021/05/04 15:24:29;;;;;;;4.17;3.53;;;;;;;16.11;37.94;98301.19;513177;1104;101891;-59
2021/05/04 15:34:34;;;;;;;5.25;3.50;;;;;;;16.46;38.15;98287.72;495833;1099;20001598;-61
2021/05/04 15:44:39;;;;;;;11.00;3.85;;;;;;;16.23;38.53;98281.31;513557;1100;116086;-59
2021/05/04 16:15:33;;;;;;;4.45;3.05;;;;;;;15.51;40.13;98280.08;512230;1104;115480;-61
2021/05/04 16:25:45;;;;;;;6.73;2.80;;;;;;;15.21;39.96;98278.85;512282;1104;116537;-59
2021/05/04 16:35:49;;;;;;;7.57;2.43;;;;;;;14.89;39.52;98312.09;512069;1099;116187;-60
2021/05/04 16:45:59;;;;;;;7.75;2.40;;;;;;;14.59;38.58;98296.55;511726;1099;117889;-61
2021/05/04 16:56:05;;;;;;;5.00;1.30;;;;;;;14.25;38.80;98270.91;512782;1104;116842;-60
2021/05/04 17:06:16;;;;;;;5.07;2.10;;;;;;;14.03;39.10;98272.25;512328;1100;116775;-61
2021/05/04 17:16:21;;;;;;;1.83;1.73;;;;;;;13.93;39.59;98241.50;512247;1104;118093;-60
2021/05/04 17:26:28;;;;;;;5.40;2.50;;;;;;;13.83;39.98;98230.20;512183;1104;116453;-60
2021/05/04 17:36:33;;;;;;;6.77;2.70;;;;;;;13.73;39.99;98230.27;512996;1104;116618;-59
2021/05/04 17:46:37;;;;;;;5.60;1.73;;;;;;;13.67;40.19;98210.59;511077;1106;115729;-59
2021/05/04 17:56:43;;;;;;;2.27;1.77;;;;;;;13.58;40.37;98201.80;510741;1104;117282;-61
2021/05/04 18:06:48;;;;;;;3.00;1.90;;;;;;;13.62;40.55;98183.03;512829;1104;116444;-60
2021/05/04 18:27:15;;;;;;;4.60;2.25;;;;;;;13.35;40.90;98176.84;512712;1104;116287;-61
2021/05/04 18:37:40;;;;;;;3.70;2.53;;;;;;;13.32;41.15;98148.97;511385;1104;116324;-60
2021/05/04 19:09:06;;;;;;;5.50;3.30;;;;;;;13.52;41.10;98148.84;512940;1100;116151;-60
2021/05/04 19:29:46;;;;;;;3.83;2.50;;;;;;;13.65;41.07;98166.92;512545;1104;115461;-64
2021/05/04 20:11:04;;;;;;;5.30;3.93;;;;;;;13.12;42.83;98156.20;511921;1104;115880;-61
2021/05/04 20:21:09;;;;;;;3.17;2.57;;;;;;;12.97;43.12;98143.56;513312;1104;115416;-59
2021/05/04 20:31:14;;;;;;;3.37;3.07;;;;;;;12.82;43.89;98145.06;511956;1104;116645;-60
2021/05/04 20:41:19;;;;;;;3.70;2.50;;;;;;;12.71;44.79;98146.08;513242;1099;116088;-60
2021/05/04 20:51:26;;;;;;;3.30;2.77;;;;;;;12.63;45.65;98159.98;514221;1100;116092;-60
2021/05/04 21:01:31;;;;;;;2.55;2.35;;;;;;;12.69;47.21;98174.38;512755;1104;116285;-59
2021/05/04 21:11:56;;;;;;;3.33;2.47;;;;;;;12.75;48.50;98165.86;512634;1100;115731;-60
2021/05/04 21:22:12;;;;;;;6.80;3.10;;;;;;;12.67;50.42;98177.14;512029;1104;115685;-59
2021/05/04 21:32:17;;;;;;;3.33;2.80;;;;;;;12.31;53.00;98177.88;512715;1100;116401;-61
2021/05/04 21:42:21;;;;;;;3.60;3.05;;;;;;;11.90;54.60;98177.25;513408;1104;115831;-60
2021/05/04 21:52:27;;;;;;;3.10;2.73;;;;;;;11.73;55.82;98176.17;513307;1104;116030;-57
2021/05/04 22:02:45;;;;;;;3.43;2.63;;;;;;;11.54;56.87;98137.59;514122;1104;116351;-57
2021/05/04 22:12:58;;;;;;;4.80;2.90;;;;;;;11.32;57.30;98129.04;512300;1104;116491;-54
2021/05/04 22:44:00;;;;;;;3.50;3.00;;;;;;;10.86;59.22;98111.19;511989;1099;116165;-57
2021/05/04 23:25:22;;;;;;;4.25;3.25;;;;;;;10.76;60.39;98095.44;511761;1104;115929;-58
2021/05/04 23:35:27;;;;;;;4.57;4.17;;;;;;;10.69;60.47;98096.13;514918;1104;116400;-56
2021/05/04 23:45:32;;;;;;;3.23;2.93;;;;;;;10.54;61.48;98101.73;512248;1100;116075;-57
2021/05/04 23:55:37;;;;;;;4.97;3.70;;;;;;;10.32;61.69;98095.70;512749;1100;116104;-59
